Meteo Bahía Blanca

ESTACION METEOROLOGICA ACBB

21/05/2022 05:52:25
TEMPERATURA SENSACION TERMICA PUNTO ROCIO

6.9 ºC

5.4 ºC

2.4 ºC

VIENTO DIRECCION VELOCIDAD RAFAGAS

308

7.6 KM/H

11.1 KM/H

PRESION HUMEDAD

1018.0 hPa

73 %

METAR SAZB

21 - 08:00METAR SAZB 210800Z 33008KT CAVOK 04/02 Q1017 =

PREVISION VIENTOS